Time;durP1;ratioP1;P1;durP2;ratioP2;P2;SDS_P1;SDS_P2;PMS_P1;PMS_P2;Temp;Humidity;BMP_temperature;BMP_pressure;BME280_temperature;BME280_humidity;BME280_pressure;Samples;Min_cycle;Max_cycle;Signal;HPM_P1;HPM_P2
2022/07/13 00:01:09;;;;;;;;;;;;;;;21.24;34.97;100788.69;5382116;32;35605;-73
2022/07/13 00:04:11;;;;;;;;;;;;;;;21.79;34.07;100797.78;5402135;32;35562;-65
2022/07/13 00:07:13;;;;;;;;;;;;;;;22.34;33.00;100800.50;5405703;32;37096;-65
2022/07/13 00:10:15;;;;;;;;;;;;;;;22.23;33.28;100803.25;5394219;32;35372;-65
2022/07/13 00:13:17;;;;;;;;;;;;;;;22.64;32.58;100805.19;5410953;32;34869;-73
2022/07/13 00:16:19;;;;;;;;;;;;;;;21.87;33.76;100799.81;5393592;32;35446;-65
2022/07/13 00:19:21;;;;;;;;;;;;;;;22.28;33.24;100801.84;5407040;32;36110;-73
2022/07/13 00:22:22;;;;;;;;;;;;;;;21.81;34.11;100794.97;5394424;32;35937;-65
2022/07/13 00:25:24;;;;;;;;;;;;;;;22.31;33.21;100798.09;5402197;32;35923;-65
2022/07/13 00:28:26;;;;;;;;;;;;;;;22.32;33.21;100778.38;5404738;32;35975;-65
2022/07/13 00:31:28;;;;;;;;;;;;;;;21.36;34.92;100787.75;5396117;32;35581;-65
2022/07/13 00:34:32;;;;;;;;;;;;;;;21.63;34.46;100770.53;5412150;32;35240;-74
2022/07/13 00:37:34;;;;;;;;;;;;;;;21.78;34.24;100779.16;5398052;32;35783;-73
2022/07/13 00:40:36;;;;;;;;;;;;;;;21.83;34.29;100785.87;5399478;32;44955;-74
2022/07/13 00:43:38;;;;;;;;;;;;;;;21.10;35.64;100784.41;5397243;32;34326;-64
2022/07/13 00:46:43;;;;;;;;;;;;;;;21.35;35.14;100774.53;5404297;32;35529;-65
2022/07/13 00:49:45;;;;;;;;;;;;;;;21.89;34.32;100774.62;5394454;32;35348;-75
2022/07/13 00:52:47;;;;;;;;;;;;;;;21.33;35.34;100779.16;5391496;32;34666;-65
2022/07/13 00:55:49;;;;;;;;;;;;;;;21.10;35.80;100776.37;5414583;32;35587;-74
2022/07/13 00:58:51;;;;;;;;;;;;;;;21.51;35.09;100767.00;5367000;32;37193;-74
2022/07/13 01:01:53;;;;;;;;;;;;;;;22.02;34.21;100768.28;5391789;32;35347;-74
2022/07/13 01:04:55;;;;;;;;;;;;;;;21.15;35.59;100764.50;5397596;32;34705;-74
2022/07/13 01:07:57;;;;;;;;;;;;;;;21.32;35.44;100772.94;5386943;32;35639;-74
2022/07/13 01:10:59;;;;;;;;;;;;;;;21.40;35.39;100763.47;5397468;32;35389;-74
2022/07/13 01:14:01;;;;;;;;;;;;;;;21.68;34.86;100762.13;5396518;32;35373;-66
2022/07/13 01:17:03;;;;;;;;;;;;;;;21.65;34.81;100762.41;5419867;32;34741;-67
2022/07/13 01:20:05;;;;;;;;;;;;;;;21.46;35.16;100766.53;5380832;32;36062;-64
2022/07/13 01:23:09;;;;;;;;;;;;;;;21.10;35.76;100763.03;5412454;32;44551;-64
2022/07/13 01:26:11;;;;;;;;;;;;;;;21.17;35.69;100758.06;5380781;32;35625;-65
2022/07/13 01:29:13;;;;;;;;;;;;;;;21.13;35.77;100753.09;5398022;32;35896;-65
2022/07/13 01:32:15;;;;;;;;;;;;;;;21.02;36.14;100754.75;5412120;32;35621;-73
2022/07/13 01:35:17;;;;;;;;;;;;;;;21.12;35.79;100762.06;5396537;32;35255;-65
2022/07/13 01:38:19;;;;;;;;;;;;;;;20.92;36.22;100753.75;5412630;32;35962;-66
2022/07/13 01:41:21;;;;;;;;;;;;;;;20.93;36.08;100757.25;5397430;32;35238;-72
2022/07/13 01:44:22;;;;;;;;;;;;;;;21.24;35.59;100755.75;5398724;32;35466;-65
2022/07/13 01:47:24;;;;;;;;;;;;;;;21.50;34.93;100753.75;5397256;32;35481;-66
2022/07/13 01:50:27;;;;;;;;;;;;;;;21.83;34.11;100736.81;5397299;32;35983;-72
2022/07/13 01:53:29;;;;;;;;;;;;;;;21.25;35.18;100744.97;5409752;32;38230;-76
2022/07/13 01:56:32;;;;;;;;;;;;;;;21.62;34.64;100744.75;5395069;32;34616;-66
2022/07/13 01:59:34;;;;;;;;;;;;;;;20.82;36.05;100744.75;5392939;32;34764;-73
2022/07/13 02:02:36;;;;;;;;;;;;;;;21.13;35.55;100751.25;5393381;32;45969;-67
2022/07/13 02:05:38;;;;;;;;;;;;;;;21.14;35.25;100744.09;5413834;32;36111;-75
2022/07/13 02:08:39;;;;;;;;;;;;;;;21.18;35.27;100737.53;5403022;32;35909;-66
2022/07/13 02:11:41;;;;;;;;;;;;;;;21.52;34.75;100743.78;5397847;32;35250;-74
2022/07/13 02:14:43;;;;;;;;;;;;;;;21.66;34.29;100710.59;5413060;32;35248;-76
2022/07/13 02:17:45;;;;;;;;;;;;;;;21.44;34.99;100732.84;5388138;32;36220;-65
2022/07/13 02:20:47;;;;;;;;;;;;;;;21.55;34.63;100731.00;5409112;32;35319;-65
2022/07/13 02:23:49;;;;;;;;;;;;;;;21.54;34.87;100737.34;5381434;32;36241;-74
2022/07/13 02:26:51;;;;;;;;;;;;;;;21.07;35.49;100731.22;5413035;32;36204;-65
2022/07/13 02:29:52;;;;;;;;;;;;;;;21.21;35.39;100723.94;5396655;32;37125;-73
2022/07/13 02:32:54;;;;;;;;;;;;;;;21.12;35.58;100732.66;5381596;32;35295;-69
2022/07/13 02:35:57;;;;;;;;;;;;;;;21.16;35.38;100732.31;5399148;32;35808;-75
2022/07/13 02:38:59;;;;;;;;;;;;;;;20.60;36.73;100732.16;5404698;32;34924;-73
2022/07/13 02:42:01;;;;;;;;;;;;;;;20.43;36.99;100725.41;5413346;32;35722;-74
2022/07/13 02:45:03;;;;;;;;;;;;;;;21.11;35.43;100729.13;5382964;32;35966;-67
2022/07/13 02:48:05;;;;;;;;;;;;;;;21.27;35.23;100731.47;5410979;32;34868;-67
2022/07/13 02:51:07;;;;;;;;;;;;;;;21.08;35.32;100706.19;5396987;32;35366;-65
2022/07/13 02:54:09;;;;;;;;;;;;;;;20.64;36.61;100732.78;5396096;32;36518;-73
2022/07/13 02:57:11;;;;;;;;;;;;;;;20.96;35.90;100722.31;5405685;32;36336;-63
2022/07/13 03:00:13;;;;;;;;;;;;;;;20.62;36.53;100738.25;5371769;32;35468;-67
2022/07/13 03:03:15;;;;;;;;;;;;;;;21.00;35.92;100729.97;5411821;32;36832;-73
2022/07/13 03:06:17;;;;;;;;;;;;;;;20.04;37.81;100739.03;5398550;32;35460;-66
2022/07/13 03:09:19;;;;;;;;;;;;;;;20.62;36.86;100732.06;5420759;32;35274;-64
2022/07/13 03:12:20;;;;;;;;;;;;;;;20.70;36.59;100726.97;5382787;32;35197;-74
2022/07/13 03:15:22;;;;;;;;;;;;;;;21.22;35.51;100728.31;5392066;32;36401;-64
2022/07/13 03:18:24;;;;;;;;;;;;;;;20.68;36.52;100720.91;5411971;32;36071;-73
2022/07/13 03:21:28;;;;;;;;;;;;;;;21.06;35.60;100729.50;5393771;32;35408;-72
2022/07/13 03:24:31;;;;;;;;;;;;;;;21.09;35.77;100734.59;5411064;32;36207;-65
2022/07/13 03:27:33;;;;;;;;;;;;;;;21.46;34.92;100731.75;5395474;32;35467;-73
2022/07/13 03:30:34;;;;;;;;;;;;;;;20.76;36.39;100740.72;5410378;32;34792;-64
2022/07/13 03:33:36;;;;;;;;;;;;;;;21.30;35.00;100720.56;5397421;32;44514;-75
2022/07/13 03:36:38;;;;;;;;;;;;;;;21.51;34.65;100721.56;5395359;32;35379;-66
2022/07/13 03:39:40;;;;;;;;;;;;;;;21.89;34.22;100731.81;5411926;32;34936;-74
2022/07/13 03:42:42;;;;;;;;;;;;;;;21.99;33.78;100733.78;5395263;32;35616;-74
2022/07/13 03:45:44;;;;;;;;;;;;;;;21.16;35.17;100732.31;5412662;32;35384;-74
2022/07/13 03:48:46;;;;;;;;;;;;;;;21.84;33.99;100731.38;5395976;32;34888;-65
2022/07/13 03:51:48;;;;;;;;;;;;;;;21.19;35.15;100734.75;5410322;32;36218;-74
2022/07/13 03:54:50;;;;;;;;;;;;;;;21.84;34.15;100735.87;5398306;32;35705;-65
2022/07/13 03:57:52;;;;;;;;;;;;;;;21.51;34.52;100742.06;5395077;32;35264;-65
2022/07/13 04:00:54;;;;;;;;;;;;;;;22.31;33.08;100744.53;5389143;32;36262;-65
2022/07/13 04:03:56;;;;;;;;;;;;;;;22.56;32.74;100732.66;5394980;32;35186;-73
2022/07/13 04:06:58;;;;;;;;;;;;;;;21.82;33.93;100735.13;5398030;32;35396;-67
2022/07/13 04:10:00;;;;;;;;;;;;;;;22.41;33.00;100735.63;5396540;32;36341;-73
2022/07/13 04:13:02;;;;;;;;;;;;;;;22.36;33.03;100740.50;5411664;32;34664;-65
2022/07/13 04:16:11;;;;;;;;;;;;;;;21.00;35.39;100724.63;5402906;32;46746;-65
2022/07/13 04:19:13;;;;;;;;;;;;;;;20.44;36.73;100737.78;5394854;32;35594;-65
2022/07/13 04:22:15;;;;;;;;;;;;;;;21.26;35.33;100732.44;5411652;32;35560;-76
2022/07/13 04:25:17;;;;;;;;;;;;;;;21.41;35.01;100733.09;5397558;32;33236;-65
2022/07/13 04:28:19;;;;;;;;;;;;;;;21.00;35.84;100721.97;5413608;32;35555;-73
2022/07/13 04:31:21;;;;;;;;;;;;;;;21.67;34.35;100729.19;5396965;32;36072;-66
2022/07/13 04:34:23;;;;;;;;;;;;;;;21.80;34.41;100731.72;5407273;32;35304;-66
2022/07/13 04:37:25;;;;;;;;;;;;;;;22.27;33.67;100729.69;5404787;32;36209;-74
2022/07/13 04:40:27;;;;;;;;;;;;;;;22.53;33.02;100738.25;5397554;32;35948;-66
2022/07/13 04:43:29;;;;;;;;;;;;;;;23.43;31.42;100730.53;5413712;32;35274;-73
2022/07/13 04:46:30;;;;;;;;;;;;;;;23.77;30.81;100734.69;5396037;32;35865;-73
2022/07/13 04:49:33;;;;;;;;;;;;;;;23.16;31.85;100741.84;5414153;32;36063;-65
2022/07/13 04:52:34;;;;;;;;;;;;;;;23.42;31.17;100732.37;5397186;32;35982;-65
2022/07/13 04:55:37;;;;;;;;;;;;;;;23.77;30.77;100740.03;5402409;32;45022;-74
2022/07/13 04:58:39;;;;;;;;;;;;;;;24.29;30.14;100737.19;5380127;32;35178;-74
2022/07/13 05:01:41;;;;;;;;;;;;;;;24.80;29.04;100730.72;5386433;32;35507;-65
2022/07/13 05:04:43;;;;;;;;;;;;;;;24.09;30.33;100739.00;5413326;32;36210;-75
2022/07/13 05:07:45;;;;;;;;;;;;;;;23.37;31.29;100728.37;5398095;32;34712;-79
2022/07/13 05:10:47;;;;;;;;;;;;;;;24.12;30.14;100736.03;5414379;32;34769;-81
2022/07/13 05:13:49;;;;;;;;;;;;;;;23.99;30.25;100736.28;5405027;32;34833;-77
2022/07/13 05:16:51;;;;;;;;;;;;;;;24.64;29.26;100728.59;5392631;32;35288;-79
2022/07/13 05:19:53;;;;;;;;;;;;;;;25.73;27.73;100724.50;5392024;32;35154;-70
2022/07/13 05:22:55;;;;;;;;;;;;;;;25.14;28.66;100733.78;5395617;32;34657;-70
2022/07/13 05:25:58;;;;;;;;;;;;;;;25.15;28.40;100723.88;5416224;32;34821;-70
2022/07/13 05:29:04;;;;;;;;;;;;;;;26.42;26.74;100736.59;5383744;32;34577;-73
2022/07/13 05:32:06;;;;;;;;;;;;;;;26.15;27.08;100730.22;5416624;32;44604;-74
2022/07/13 05:35:08;;;;;;;;;;;;;;;26.23;27.10;100721.37;5395823;32;35471;-70
2022/07/13 05:38:10;;;;;;;;;;;;;;;25.77;27.62;100731.31;5387505;32;36093;-74
2022/07/13 05:41:12;;;;;;;;;;;;;;;26.54;26.62;100734.50;5403578;32;35224;-74
2022/07/13 05:44:14;;;;;;;;;;;;;;;25.97;27.70;100737.44;5395448;32;34855;-74
2022/07/13 05:47:16;;;;;;;;;;;;;;;26.12;26.92;100737.75;5396806;32;35196;-72
2022/07/13 05:50:20;;;;;;;;;;;;;;;25.82;27.25;100741.59;5397261;32;36770;-70
2022/07/13 05:53:22;;;;;;;;;;;;;;;26.77;26.19;100735.69;5404799;32;34985;-75
2022/07/13 05:56:24;;;;;;;;;;;;;;;26.40;26.68;100749.34;5391094;32;36105;-74
2022/07/13 05:59:26;;;;;;;;;;;;;;;27.18;25.19;100738.75;5343785;32;36102;-71
2022/07/13 06:02:28;;;;;;;;;;;;;;;26.92;25.82;100744.94;5389834;32;37338;-71
2022/07/13 06:05:31;;;;;;;;;;;;;;;26.47;26.37;100745.06;5386894;32;36342;-67
2022/07/13 06:08:33;;;;;;;;;;;;;;;27.80;24.80;100744.81;5390072;32;34441;-77
2022/07/13 06:11:35;;;;;;;;;;;;;;;27.46;25.28;100745.63;5383810;32;36468;-72
2022/07/13 06:14:37;;;;;;;;;;;;;;;28.70;23.25;100736.91;5399342;32;44912;-71
2022/07/13 06:17:39;;;;;;;;;;;;;;;29.88;21.97;100729.88;5372491;32;34927;-71
2022/07/13 06:20:41;;;;;;;;;;;;;;;28.79;23.13;100741.31;5379801;32;34690;-81
2022/07/13 06:23:43;;;;;;;;;;;;;;;28.51;23.52;100747.03;5388886;32;35053;-73
2022/07/13 06:26:45;;;;;;;;;;;;;;;29.29;22.65;100737.53;5375390;32;35058;-70
2022/07/13 06:29:47;;;;;;;;;;;;;;;28.60;23.66;100727.12;5394470;32;36799;-79
2022/07/13 06:32:49;;;;;;;;;;;;;;;29.28;22.71;100742.09;5378534;32;34793;-78
2022/07/13 06:35:51;;;;;;;;;;;;;;;28.72;23.50;100745.69;5401245;32;36556;-81
2022/07/13 06:38:53;;;;;;;;;;;;;;;29.48;22.71;100750.69;5384026;32;35570;-75
2022/07/13 06:41:55;;;;;;;;;;;;;;;29.03;23.25;100757.53;5388776;32;36971;-77
2022/07/13 06:44:57;;;;;;;;;;;;;;;29.14;22.91;100761.75;5406664;32;35356;-73
2022/07/13 06:47:59;;;;;;;;;;;;;;;30.40;21.64;100753.66;5375067;32;34788;-86
2022/07/13 06:51:01;;;;;;;;;;;;;;;30.35;21.68;100753.38;5409326;32;34067;-72
2022/07/13 06:54:03;;;;;;;;;;;;;;;30.30;22.19;100756.63;5369973;32;35015;-75
2022/07/13 06:57:05;;;;;;;;;;;;;;;29.37;23.27;100761.91;5410270;32;36739;-68
2022/07/13 07:00:08;;;;;;;;;;;;;;;30.54;21.83;100752.06;5374152;32;35609;-78
2022/07/13 07:03:10;;;;;;;;;;;;;;;30.85;21.44;100752.88;5396523;32;34607;-72
2022/07/13 07:06:13;;;;;;;;;;;;;;;31.85;20.36;100752.50;5389579;32;35046;-75
2022/07/13 07:09:15;;;;;;;;;;;;;;;30.96;21.30;100751.56;5376906;32;34590;-71
2022/07/13 07:12:17;;;;;;;;;;;;;;;30.72;21.67;100758.91;5392128;32;34692;-70
2022/07/13 07:15:19;;;;;;;;;;;;;;;28.93;23.73;100754.19;5394646;32;35247;-69
2022/07/13 07:18:22;;;;;;;;;;;;;;;31.07;21.44;100751.12;5408154;32;34396;-67
2022/07/13 07:21:24;;;;;;;;;;;;;;;31.04;21.54;100746.03;5392912;32;35060;-73
2022/07/13 07:24:26;;;;;;;;;;;;;;;32.01;20.48;100745.97;5387262;32;35966;-70
2022/07/13 07:27:28;;;;;;;;;;;;;;;32.76;19.55;100737.38;5408531;32;36379;-72
2022/07/13 07:30:30;;;;;;;;;;;;;;;31.35;21.38;100734.22;5382908;32;36071;-69
2022/07/13 07:33:32;;;;;;;;;;;;;;;32.53;19.80;100734.03;5407075;32;34721;-68
2022/07/13 07:36:34;;;;;;;;;;;;;;;32.78;19.80;100720.84;5396808;32;36180;-72
2022/07/13 07:39:37;;;;;;;;;;;;;;;31.72;21.07;100727.84;5396027;32;44339;-72
2022/07/13 07:42:39;;;;;;;;;;;;;;;32.32;20.27;100723.94;5404129;32;34763;-72
2022/07/13 07:45:41;;;;;;;;;;;;;;;30.56;22.35;100709.31;5390435;32;34562;-72
2022/07/13 07:48:43;;;;;;;;;;;;;;;30.46;23.19;100715.84;5386946;32;34933;-72
2022/07/13 07:51:45;;;;;;;;;;;;;;;31.97;21.08;100714.81;5383129;32;34639;-71
2022/07/13 07:55:07;;;;;;;;;;;;;;;30.86;22.22;100718.44;5405261;32;45205;-73
2022/07/13 07:58:09;;;;;;;;;;;;;;;31.87;21.05;100725.13;5383084;32;35311;-84
2022/07/13 08:01:12;;;;;;;;;;;;;;;30.79;22.50;100723.75;5387560;32;35325;-67
2022/07/13 08:04:15;;;;;;;;;;;;;;;32.30;20.99;100710.56;5397519;32;35710;-68
2022/07/13 08:07:17;;;;;;;;;;;;;;;32.17;21.05;100713.12;5385635;32;37117;-71
2022/07/13 08:10:19;;;;;;;;;;;;;;;29.80;23.59;100725.37;5410605;32;34700;-71
2022/07/13 08:13:30;;;;;;;;;;;;;;;31.26;22.20;100719.91;5377677;32;35196;-76
2022/07/13 08:16:32;;;;;;;;;;;;;;;29.92;23.83;100709.56;5411616;32;34881;-73
2022/07/13 08:19:36;;;;;;;;;;;;;;;29.15;24.89;100703.91;5390331;32;34398;-80
2022/07/13 08:22:41;;;;;;;;;;;;;;;29.77;24.18;100708.63;5387501;32;41933;-78
2022/07/13 08:25:43;;;;;;;;;;;;;;;29.72;24.42;100713.72;5396119;32;34734;-76
2022/07/13 08:28:45;;;;;;;;;;;;;;;28.97;25.29;100717.63;5395953;32;35412;-76
2022/07/13 08:31:47;;;;;;;;;;;;;;;30.09;23.90;100713.88;5398913;32;35038;-81
2022/07/13 08:41:42;;;;;;;;;;;;;;;30.39;23.52;100703.16;5405740;32;44594;-72
2022/07/13 08:44:44;;;;;;;;;;;;;;;30.87;22.93;100685.66;5385674;32;36078;-71
2022/07/13 08:47:46;;;;;;;;;;;;;;;32.13;21.49;100700.12;5390138;32;34865;-68
2022/07/13 08:50:48;;;;;;;;;;;;;;;30.74;23.02;100694.44;5376351;32;35009;-69
2022/07/13 08:53:51;;;;;;;;;;;;;;;31.21;22.75;100687.84;5398929;32;36096;-75
2022/07/13 08:56:53;;;;;;;;;;;;;;;31.18;22.48;100687.41;5383794;32;34803;-72
2022/07/13 08:59:55;;;;;;;;;;;;;;;32.79;20.71;100677.13;5368886;32;34987;-69
2022/07/13 09:02:57;;;;;;;;;;;;;;;31.55;22.33;100681.00;5408928;32;35721;-76
2022/07/13 09:06:00;;;;;;;;;;;;;;;32.95;20.37;100675.16;5389787;32;36726;-75
2022/07/13 09:09:02;;;;;;;;;;;;;;;31.85;21.67;100667.41;5409154;32;34848;-68
2022/07/13 09:12:09;;;;;;;;;;;;;;;32.53;21.20;100675.03;5373774;32;36083;-75
2022/07/13 09:15:14;;;;;;;;;;;;;;;32.47;21.07;100656.78;5406104;32;46087;-70
2022/07/13 09:18:19;;;;;;;;;;;;;;;32.87;20.43;100657.09;5384233;32;36518;-75
2022/07/13 09:21:22;;;;;;;;;;;;;;;30.62;22.62;100674.19;5394931;32;36054;-71
2022/07/13 09:24:24;;;;;;;;;;;;;;;30.39;23.16;100659.78;5394298;32;36273;-70
2022/07/13 09:27:26;;;;;;;;;;;;;;;32.07;21.26;100663.66;5383921;32;35975;-69
2022/07/13 09:30:28;;;;;;;;;;;;;;;32.60;20.71;100656.03;5408784;32;34707;-69
2022/07/13 09:33:31;;;;;;;;;;;;;;;31.31;21.68;100676.75;5385685;32;34912;-78
2022/07/13 09:36:34;;;;;;;;;;;;;;;32.74;20.11;100665.16;5395156;32;36354;-80
2022/07/13 09:39:54;;;;;;;;;;;;;;;33.52;19.71;100672.16;5402951;32;34793;-73
2022/07/13 09:46:17;;;;;;;;;;;;;;;34.64;18.06;100670.75;5388872;32;36259;-72
2022/07/13 09:49:35;;;;;;;;;;;;;;;31.72;21.05;100677.06;5395728;32;36097;-85
2022/07/13 09:52:37;;;;;;;;;;;;;;;34.10;18.26;100663.56;5405027;32;44979;-71
2022/07/13 09:55:45;;;;;;;;;;;;;;;33.13;19.17;100670.03;5413112;32;35835;-75
2022/07/13 09:58:47;;;;;;;;;;;;;;;32.60;19.91;100661.47;5389884;32;34685;-71
2022/07/13 10:01:49;;;;;;;;;;;;;;;32.77;19.90;100667.44;5385955;32;34717;-74
2022/07/13 10:04:51;;;;;;;;;;;;;;;33.80;18.82;100671.19;5391516;32;42697;-71
2022/07/13 10:07:53;;;;;;;;;;;;;;;32.79;19.39;100668.97;5421059;32;35973;-73
2022/07/13 10:10:55;;;;;;;;;;;;;;;33.46;18.52;100683.03;5402165;32;36446;-76
2022/07/13 10:13:57;;;;;;;;;;;;;;;32.77;19.00;100676.47;5400849;32;34840;-76
2022/07/13 10:17:00;;;;;;;;;;;;;;;31.69;20.06;100660.31;5412295;32;36108;-76
2022/07/13 10:20:05;;;;;;;;;;;;;;;30.99;20.91;100667.91;5395215;32;35736;-70
2022/07/13 10:23:08;;;;;;;;;;;;;;;33.06;18.92;100650.94;5403770;32;45125;-81
2022/07/13 10:26:31;;;;;;;;;;;;;;;33.44;18.70;100668.78;5400338;32;34988;-76
2022/07/13 10:29:33;;;;;;;;;;;;;;;33.45;18.15;100659.56;5406547;32;36543;-68
2022/07/13 10:32:37;;;;;;;;;;;;;;;31.96;19.32;100658.75;5407355;32;44469;-69
2022/07/13 10:35:49;;;;;;;;;;;;;;;32.99;18.94;100641.91;5398776;32;35731;-66
2022/07/13 10:39:08;;;;;;;;;;;;;;;34.12;18.29;100634.19;5410631;32;35853;-74
2022/07/13 10:42:10;;;;;;;;;;;;;;;36.33;16.21;100621.34;5389898;32;46054;-71
2022/07/13 10:45:31;;;;;;;;;;;;;;;34.37;17.79;100648.88;5411129;32;34895;-76
2022/07/13 10:48:34;;;;;;;;;;;;;;;32.51;19.25;100643.59;5395092;32;36215;-77
2022/07/13 10:51:36;;;;;;;;;;;;;;;33.89;18.00;100629.09;5404286;32;45070;-77
2022/07/13 10:54:38;;;;;;;;;;;;;;;32.54;19.36;100635.91;5404974;32;36263;-79
2022/07/13 10:57:44;;;;;;;;;;;;;;;34.80;17.00;100634.84;5400049;32;35997;-71
2022/07/13 11:00:47;;;;;;;;;;;;;;;35.64;16.39;100633.13;5378014;32;34760;-71
2022/07/13 11:03:49;;;;;;;;;;;;;;;35.95;15.59;100632.38;5392148;32;34713;-70
2022/07/13 11:07:05;;;;;;;;;;;;;;;36.65;14.70;100629.50;5402086;32;36131;-74
2022/07/13 11:10:30;;;;;;;;;;;;;;;33.55;16.99;100638.19;5415396;32;46699;-72
2022/07/13 11:13:34;;;;;;;;;;;;;;;33.52;17.24;100627.72;5385185;32;37465;-86
2022/07/13 11:16:46;;;;;;;;;;;;;;;36.11;14.70;100633.72;5411711;32;44603;-74
2022/07/13 11:19:51;;;;;;;;;;;;;;;36.26;14.76;100615.06;5383179;32;34655;-76
2022/07/13 11:26:36;;;;;;;;;;;;;;;33.82;16.82;100617.34;5411532;32;34912;-69
2022/07/13 11:29:50;;;;;;;;;;;;;;;35.53;15.40;100616.34;5398187;32;44068;-73
2022/07/13 11:32:52;;;;;;;;;;;;;;;33.60;16.76;100617.47;5401897;32;34386;-71
2022/07/13 11:35:54;;;;;;;;;;;;;;;32.83;17.26;100607.63;5398913;32;34702;-70
2022/07/13 11:38:56;;;;;;;;;;;;;;;36.39;14.66;100609.53;5395309;32;36623;-74
2022/07/13 11:41:58;;;;;;;;;;;;;;;36.91;14.18;100592.84;5391025;32;34535;-68
2022/07/13 11:45:00;;;;;;;;;;;;;;;36.91;14.24;100582.72;5386473;32;36276;-74
2022/07/13 11:48:03;;;;;;;;;;;;;;;37.10;13.70;100595.34;5397368;32;34772;-75
2022/07/13 11:51:11;;;;;;;;;;;;;;;35.44;14.73;100590.34;5385711;32;36333;-69
2022/07/13 11:54:14;;;;;;;;;;;;;;;35.72;14.63;100598.16;5408885;32;45211;-70
2022/07/13 11:57:17;;;;;;;;;;;;;;;36.41;14.21;100584.69;5392019;32;34569;-76
2022/07/13 12:00:19;;;;;;;;;;;;;;;36.05;14.73;100597.97;5376594;32;36212;-69
2022/07/13 12:03:32;;;;;;;;;;;;;;;35.37;15.41;100605.06;5406977;32;34821;-71
2022/07/13 12:06:35;;;;;;;;;;;;;;;35.81;15.32;100585.09;5387812;32;34662;-70
2022/07/13 12:09:37;;;;;;;;;;;;;;;34.85;16.05;100583.16;5413265;32;44418;-84
2022/07/13 12:12:42;;;;;;;;;;;;;;;33.89;17.03;100588.19;5387241;32;36331;-71
2022/07/13 12:15:45;;;;;;;;;;;;;;;34.47;16.24;100580.31;5406049;32;36361;-70
2022/07/13 12:18:56;;;;;;;;;;;;;;;34.57;16.27;100585.31;5403753;32;35579;-73
2022/07/13 12:21:59;;;;;;;;;;;;;;;32.72;17.79;100591.88;5393376;32;36555;-75
2022/07/13 12:25:01;;;;;;;;;;;;;;;31.35;19.40;100593.84;5373967;32;828701;-73
2022/07/13 12:28:04;;;;;;;;;;;;;;;31.67;18.83;100599.87;5399059;32;36738;-76
2022/07/13 12:31:07;;;;;;;;;;;;;;;31.59;18.61;100592.69;5398785;32;46109;-80
2022/07/13 12:34:09;;;;;;;;;;;;;;;31.54;18.25;100586.97;5399118;32;34558;-74
2022/07/13 12:37:31;;;;;;;;;;;;;;;31.97;18.18;100573.44;5401544;32;36957;-75
2022/07/13 12:40:37;;;;;;;;;;;;;;;31.78;18.62;100581.22;5412533;32;36319;-72
2022/07/13 12:43:39;;;;;;;;;;;;;;;31.84;18.08;100578.75;5401951;32;43926;-70
2022/07/13 12:46:45;;;;;;;;;;;;;;;31.49;18.57;100576.72;5413645;32;34848;-67
2022/07/13 12:49:48;;;;;;;;;;;;;;;32.03;18.04;100572.69;5396461;32;36047;-70
2022/07/13 12:52:58;;;;;;;;;;;;;;;31.81;18.27;100569.09;5405345;32;35185;-73
2022/07/13 12:56:04;;;;;;;;;;;;;;;31.43;18.39;100574.75;5399668;32;36068;-69
2022/07/13 12:59:06;;;;;;;;;;;;;;;31.23;18.16;100565.47;5386348;32;44562;-78
2022/07/13 13:02:08;;;;;;;;;;;;;;;31.52;17.70;100570.03;5393031;32;36186;-73
2022/07/13 13:05:11;;;;;;;;;;;;;;;32.05;16.39;100548.84;5400898;32;35051;-82
2022/07/13 13:08:13;;;;;;;;;;;;;;;32.07;16.20;100535.87;5413018;32;34968;-82
2022/07/13 13:11:15;;;;;;;;;;;;;;;31.25;17.24;100539.03;5404459;32;35237;-74
2022/07/13 13:14:18;;;;;;;;;;;;;;;32.11;16.63;100533.62;5389185;32;34818;-73
2022/07/13 13:17:20;;;;;;;;;;;;;;;31.57;16.98;100551.28;5395627;32;34780;-77
2022/07/13 13:20:23;;;;;;;;;;;;;;;30.92;17.86;100542.13;5389037;32;35952;-72
2022/07/13 13:23:24;;;;;;;;;;;;;;;31.08;17.40;100545.66;5410415;32;34699;-70
2022/07/13 13:26:26;;;;;;;;;;;;;;;31.26;17.55;100538.00;5386838;32;34809;-79
2022/07/13 13:32:58;;;;;;;;;;;;;;;31.39;17.56;100540.00;5412858;32;36626;-73
2022/07/13 13:36:01;;;;;;;;;;;;;;;31.37;17.99;100536.66;5403778;32;34902;-73
2022/07/13 13:39:06;;;;;;;;;;;;;;;31.92;17.89;100527.81;5400946;32;45064;-73
2022/07/13 13:42:08;;;;;;;;;;;;;;;31.93;17.88;100524.06;5400832;32;34740;-74
2022/07/13 13:45:31;;;;;;;;;;;;;;;32.05;17.66;100525.22;5410441;32;35141;-71
2022/07/13 13:48:35;;;;;;;;;;;;;;;31.70;17.97;100526.13;5405638;32;34935;-74
2022/07/13 13:51:37;;;;;;;;;;;;;;;30.87;19.06;100517.44;5401425;32;44639;-75
2022/07/13 13:55:00;;;;;;;;;;;;;;;31.18;18.64;100525.34;5418316;32;35010;-72
2022/07/13 13:58:02;;;;;;;;;;;;;;;31.36;18.56;100519.50;5401192;32;35399;-73
2022/07/13 14:01:05;;;;;;;;;;;;;;;32.16;17.89;100510.25;5387181;32;35206;-71
2022/07/13 14:04:08;;;;;;;;;;;;;;;31.40;18.66;100522.69;5389204;32;46119;-75
2022/07/13 14:07:10;;;;;;;;;;;;;;;30.67;19.38;100511.75;5402479;32;36302;-72
2022/07/13 14:10:12;;;;;;;;;;;;;;;31.05;19.27;100508.91;5414075;32;37050;-76
2022/07/13 14:13:14;;;;;;;;;;;;;;;31.61;18.82;100498.25;5401640;32;35322;-73
2022/07/13 14:16:16;;;;;;;;;;;;;;;31.66;18.51;100503.94;5410638;32;34660;-70
2022/07/13 14:19:18;;;;;;;;;;;;;;;32.38;18.08;100491.19;5381504;32;36690;-73
2022/07/13 14:22:20;;;;;;;;;;;;;;;31.55;18.97;100489.00;5404678;32;34636;-69
2022/07/13 14:25:23;;;;;;;;;;;;;;;31.33;18.99;100479.16;5393051;32;34738;-72
2022/07/13 14:28:25;;;;;;;;;;;;;;;31.89;18.32;100482.03;5391035;32;36356;-83
2022/07/13 14:31:27;;;;;;;;;;;;;;;31.93;18.29;100471.59;5397092;32;35135;-84
2022/07/13 14:34:30;;;;;;;;;;;;;;;31.09;18.22;100477.59;5392212;32;34841;-73
2022/07/13 14:37:32;;;;;;;;;;;;;;;30.85;18.29;100486.06;5407994;32;34674;-74
2022/07/13 14:40:34;;;;;;;;;;;;;;;31.60;17.39;100474.00;5400692;32;35704;-73
2022/07/13 14:43:37;;;;;;;;;;;;;;;31.88;17.37;100466.78;5411871;32;44879;-83
2022/07/13 14:46:39;;;;;;;;;;;;;;;31.13;18.28;100478.91;5402500;32;34730;-83
2022/07/13 14:49:41;;;;;;;;;;;;;;;31.37;17.95;100471.50;5417614;32;36084;-84
2022/07/13 14:53:00;;;;;;;;;;;;;;;32.06;17.36;100475.25;5415510;32;34643;-72
2022/07/13 14:56:02;;;;;;;;;;;;;;;32.01;17.30;100477.75;5372844;32;35998;-84
2022/07/13 14:59:04;;;;;;;;;;;;;;;31.86;17.44;100467.97;5397187;32;35330;-74
2022/07/13 15:02:06;;;;;;;;;;;;;;;31.52;17.96;100472.25;5380444;32;44729;-72
2022/07/13 15:05:12;;;;;;;;;;;;;;;31.34;18.36;100464.56;5393977;32;35212;-73
2022/07/13 15:08:15;;;;;;;;;;;;;;;31.51;18.42;100459.72;5404941;32;35018;-73
2022/07/13 15:11:17;;;;;;;;;;;;;;;31.77;18.19;100459.94;5405259;32;35680;-73
2022/07/13 15:14:19;;;;;;;;;;;;;;;30.90;18.93;100468.19;5417283;32;35174;-73
2022/07/13 15:17:21;;;;;;;;;;;;;;;31.02;18.27;100466.69;5398474;32;35320;-74
2022/07/13 15:20:43;;;;;;;;;;;;;;;30.90;18.22;100460.06;5399298;32;44593;-75
2022/07/13 15:23:45;;;;;;;;;;;;;;;31.58;17.68;100451.63;5383669;32;37944;-85
2022/07/13 15:26:47;;;;;;;;;;;;;;;31.39;17.22;100445.81;5398947;32;34581;-74
2022/07/13 15:29:49;;;;;;;;;;;;;;;30.50;18.24;100464.09;5402180;32;36164;-85
2022/07/13 15:32:51;;;;;;;;;;;;;;;31.27;17.12;100463.66;5404915;32;35751;-75
2022/07/13 15:35:53;;;;;;;;;;;;;;;31.09;17.35;100458.59;5415416;32;36477;-80
2022/07/13 15:38:55;;;;;;;;;;;;;;;31.75;16.95;100456.59;5398262;32;35506;-79
2022/07/13 15:41:58;;;;;;;;;;;;;;;30.79;17.99;100455.16;5412943;32;36383;-79
2022/07/13 15:45:00;;;;;;;;;;;;;;;30.89;18.06;100452.94;5383171;32;34800;-79
2022/07/13 15:48:02;;;;;;;;;;;;;;;31.41;17.53;100453.75;5399395;32;35344;-75
2022/07/13 15:51:04;;;;;;;;;;;;;;;30.70;18.05;100465.25;5418230;32;35473;-72
2022/07/13 15:54:06;;;;;;;;;;;;;;;31.40;17.47;100443.94;5395795;32;44891;-74
2022/07/13 15:57:08;;;;;;;;;;;;;;;31.68;17.18;100450.25;5412860;32;34733;-73